Time;durP1;ratioP1;P1;durP2;ratioP2;P2;SDS_P1;SDS_P2;PMS_P1;PMS_P2;Temp;Humidity;BMP_temperature;BMP_pressure;BME280_temperature;BME280_humidity;BME280_pressure;Samples;Min_cycle;Max_cycle;Signal;HPM_P1;HPM_P2
2023/05/21 00:00:10;;;;;;;3.77;3.57;;;20.20;44.90;;;;;;5015026;28;20246;-73
2023/05/21 00:02:35;;;;;;;3.33;3.13;;;20.20;44.90;;;;;;5009764;28;20215;-73
2023/05/21 00:05:01;;;;;;;3.20;3.00;;;20.20;44.90;;;;;;5009374;28;20958;-73
2023/05/21 00:07:26;;;;;;;3.60;3.40;;;20.20;44.90;;;;;;4992456;28;20289;-73
2023/05/21 00:09:52;;;;;;;3.60;3.40;;;20.20;44.90;;;;;;5013339;28;20699;-73
2023/05/21 00:12:17;;;;;;;3.57;3.37;;;20.20;44.90;;;;;;5006873;28;20406;-72
2023/05/21 00:14:43;;;;;;;3.57;3.37;;;20.20;44.90;;;;;;5010544;28;20242;-72
2023/05/21 00:17:08;;;;;;;3.70;3.50;;;20.20;44.90;;;;;;5011217;28;20300;-72
2023/05/21 00:19:34;;;;;;;3.83;3.63;;;20.20;44.90;;;;;;5012857;28;20247;-72
2023/05/21 00:22:03;;;;;;;3.93;3.73;;;20.20;44.90;;;;;;5012283;28;20231;-73
2023/05/21 00:24:28;;;;;;;3.70;3.50;;;20.20;44.90;;;;;;5009266;28;20592;-73
2023/05/21 00:26:55;;;;;;;3.83;3.63;;;20.20;44.90;;;;;;5016277;28;20435;-73
2023/05/21 00:29:21;;;;;;;4.00;3.80;;;20.20;44.90;;;;;;5010390;28;20246;-73
2023/05/21 00:31:46;;;;;;;3.97;3.77;;;20.20;44.90;;;;;;5012786;28;21467;-72
2023/05/21 00:34:12;;;;;;;3.73;3.53;;;20.20;44.90;;;;;;5011681;28;20443;-72
2023/05/21 00:36:39;;;;;;;3.77;3.57;;;20.20;44.90;;;;;;5008239;28;20246;-72
2023/05/21 00:39:05;;;;;;;4.13;3.93;;;20.20;44.90;;;;;;5001096;28;20786;-72
2023/05/21 00:41:30;;;;;;;3.67;3.47;;;20.20;44.90;;;;;;4986457;28;20452;-73
2023/05/21 00:43:59;;;;;;;3.73;3.53;;;20.20;44.90;;;;;;5000472;28;20220;-73
2023/05/21 00:46:27;;;;;;;4.23;3.97;;;20.20;44.90;;;;;;5008539;28;20265;-73
2023/05/21 00:48:53;;;;;;;3.80;3.60;;;20.20;44.90;;;;;;5011889;28;20563;-73
2023/05/21 00:51:20;;;;;;;3.93;3.63;;;20.20;44.90;;;;;;5009846;28;20439;-72
2023/05/21 00:53:50;;;;;;;3.33;3.13;;;20.20;44.90;;;;;;5009624;28;20467;-73
2023/05/21 00:56:15;;;;;;;3.40;3.20;;;20.20;44.90;;;;;;5000879;28;20470;-73
2023/05/21 00:58:41;;;;;;;3.80;3.60;;;20.20;44.90;;;;;;5005025;28;23550;-73
2023/05/21 01:01:12;;;;;;;4.40;4.20;;;20.20;44.90;;;;;;4982896;28;20301;-72
2023/05/21 01:03:38;;;;;;;3.60;3.40;;;20.20;44.90;;;;;;5000061;28;20626;-72
2023/05/21 01:06:04;;;;;;;3.33;3.13;;;20.20;44.90;;;;;;5004841;28;20958;-72
2023/05/21 01:08:31;;;;;;;3.67;3.47;;;20.20;44.90;;;;;;5007301;28;20439;-72
2023/05/21 01:10:57;;;;;;;4.00;3.80;;;20.20;44.90;;;;;;4999508;28;20450;-73
2023/05/21 01:13:23;;;;;;;4.00;3.80;;;20.20;44.90;;;;;;5003603;28;20439;-72
2023/05/21 01:15:50;;;;;;;3.80;3.60;;;20.20;44.90;;;;;;4998121;28;20460;-73
2023/05/21 01:18:15;;;;;;;3.73;3.53;;;20.20;44.90;;;;;;5007793;28;20481;-72
2023/05/21 01:20:46;;;;;;;4.13;3.93;;;20.20;44.90;;;;;;5015097;28;20521;-72
2023/05/21 01:23:16;;;;;;;4.07;3.87;;;20.20;44.90;;;;;;5005791;28;20233;-72
2023/05/21 01:25:43;;;;;;;6.93;4.00;;;20.20;44.90;;;;;;5011835;28;20948;-72
2023/05/21 01:28:08;;;;;;;3.50;3.30;;;20.20;44.90;;;;;;5012335;28;20495;-72
2023/05/21 01:30:35;;;;;;;3.90;3.70;;;20.20;44.90;;;;;;5011948;28;20920;-72
2023/05/21 01:33:11;;;;;;;3.63;3.43;;;20.20;44.90;;;;;;5011906;28;20262;-72
2023/05/21 01:36:03;;;;;;;4.00;3.80;;;20.20;44.90;;;;;;4997511;28;20442;-72
2023/05/21 01:38:42;;;;;;;3.60;3.40;;;20.20;44.90;;;;;;5011317;28;20468;-73
2023/05/21 01:41:12;;;;;;;3.83;3.63;;;20.20;44.90;;;;;;5011585;28;20994;-72
2023/05/21 01:43:42;;;;;;;4.07;3.87;;;20.20;44.90;;;;;;5001278;28;20546;-72
2023/05/21 01:46:11;;;;;;;3.77;3.57;;;20.20;44.90;;;;;;5006467;28;20584;-72
2023/05/21 01:48:37;;;;;;;4.07;3.87;;;20.20;44.90;;;;;;4992980;28;20452;-72
2023/05/21 01:51:04;;;;;;;3.97;3.77;;;20.20;44.90;;;;;;5013448;28;20472;-72
2023/05/21 01:53:30;;;;;;;4.10;3.90;;;20.20;44.90;;;;;;4997819;28;21556;-72
2023/05/21 01:55:56;;;;;;;4.10;3.83;;;20.20;44.90;;;;;;4997510;28;20487;-72
2023/05/21 01:58:23;;;;;;;3.50;3.30;;;20.20;44.90;;;;;;5009025;28;20231;-72
2023/05/21 02:00:49;;;;;;;3.87;3.67;;;20.20;44.90;;;;;;5002227;28;20316;-72
2023/05/21 02:03:16;;;;;;;3.70;3.50;;;20.20;44.90;;;;;;5000445;28;20461;-72
2023/05/21 02:05:42;;;;;;;4.17;3.37;;;20.20;45.70;;;;;;4998904;28;20446;-72
2023/05/21 02:08:07;;;;;;;3.37;3.17;;;20.20;44.90;;;;;;5003094;28;20479;-73
2023/05/21 02:10:34;;;;;;;3.53;3.33;;;20.20;44.90;;;;;;5005092;28;20221;-72
2023/05/21 02:12:59;;;;;;;3.73;3.53;;;20.20;44.90;;;;;;4991690;28;20324;-72
2023/05/21 02:15:25;;;;;;;4.30;4.10;;;20.20;44.90;;;;;;4996874;28;20475;-72
2023/05/21 02:17:51;;;;;;;3.57;3.37;;;20.20;44.90;;;;;;4998660;28;20219;-72
2023/05/21 02:20:18;;;;;;;3.60;3.40;;;20.20;44.90;;;;;;4999497;28;20228;-72
2023/05/21 02:22:47;;;;;;;3.83;3.63;;;20.20;44.90;;;;;;4993982;28;21631;-72
2023/05/21 02:25:15;;;;;;;3.73;3.53;;;20.20;44.90;;;;;;5010323;28;20434;-72
2023/05/21 02:27:42;;;;;;;3.80;3.60;;;20.20;44.90;;;;;;5008241;28;20444;-72
2023/05/21 02:30:12;;;;;;;3.03;2.93;;;20.20;45.70;;;;;;4997862;28;21184;-72
2023/05/21 02:32:41;;;;;;;3.43;3.23;;;20.20;44.90;;;;;;5005128;28;21021;-73
2023/05/21 02:35:08;;;;;;;4.07;3.87;;;20.20;45.60;;;;;;5002637;28;21362;-72
2023/05/21 02:37:34;;;;;;;4.27;4.07;;;20.20;44.90;;;;;;5006715;28;21020;-72
2023/05/21 02:40:01;;;;;;;3.53;3.33;;;20.20;44.90;;;;;;5006998;28;20547;-72
2023/05/21 02:42:26;;;;;;;4.50;4.20;;;20.20;44.90;;;;;;5000045;28;20460;-72
2023/05/21 02:44:52;;;;;;;3.80;3.60;;;20.20;44.90;;;;;;5002762;28;20439;-72
2023/05/21 02:47:18;;;;;;;3.60;3.40;;;20.20;44.90;;;;;;5022526;28;20690;-72
2023/05/21 02:49:44;;;;;;;4.00;3.80;;;20.10;44.80;;;;;;5001283;28;20709;-72
2023/05/21 02:52:10;;;;;;;3.80;3.60;;;20.20;44.90;;;;;;5009629;28;20956;-72
2023/05/21 02:54:35;;;;;;;3.40;3.20;;;20.20;44.90;;;;;;5010715;28;20440;-72
2023/05/21 02:57:01;;;;;;;3.70;3.50;;;20.20;44.90;;;;;;5003658;28;20214;-72
2023/05/21 02:59:26;;;;;;;4.00;3.70;;;20.20;44.90;;;;;;5010635;28;20211;-73
2023/05/21 03:01:52;;;;;;;3.73;3.53;;;20.20;44.90;;;;;;5010909;28;20309;-72
2023/05/21 03:04:20;;;;;;;3.93;3.73;;;20.10;44.80;;;;;;5007428;28;20253;-72
2023/05/21 03:06:53;;;;;;;2.83;2.73;;;20.10;44.80;;;;;;5007349;28;20235;-72
2023/05/21 03:09:20;;;;;;;3.80;3.60;;;20.20;44.90;;;;;;5010081;28;20985;-72
2023/05/21 03:11:46;;;;;;;3.93;3.73;;;20.20;44.90;;;;;;4996395;28;20459;-72
2023/05/21 03:14:12;;;;;;;3.40;3.20;;;20.20;44.90;;;;;;5003290;28;20478;-72
2023/05/21 03:16:40;;;;;;;3.67;3.47;;;20.20;44.90;;;;;;5003298;28;20466;-72
2023/05/21 03:19:06;;;;;;;3.40;3.20;;;20.20;44.90;;;;;;4996213;28;20659;-72
2023/05/21 03:21:32;;;;;;;3.37;3.17;;;20.20;44.90;;;;;;5006815;28;20550;-72
2023/05/21 03:23:59;;;;;;;3.47;3.27;;;20.20;44.90;;;;;;4996783;28;20564;-73
2023/05/21 03:26:28;;;;;;;3.40;3.20;;;20.20;44.90;;;;;;5007638;28;20709;-72
2023/05/21 03:28:55;;;;;;;3.27;3.07;;;20.20;44.90;;;;;;5007450;28;20482;-72
2023/05/21 03:31:21;;;;;;;3.60;3.40;;;20.20;44.90;;;;;;5011722;28;20485;-72
2023/05/21 03:33:46;;;;;;;4.03;3.83;;;20.10;44.80;;;;;;5008896;28;21283;-72
2023/05/21 03:36:12;;;;;;;3.93;3.63;;;20.10;44.80;;;;;;5009912;28;20446;-73
2023/05/21 03:38:37;;;;;;;3.20;3.00;;;20.10;44.80;;;;;;5005018;28;20691;-72
2023/05/21 03:41:03;;;;;;;3.73;3.53;;;20.10;44.80;;;;;;5010991;28;21301;-72
2023/05/21 03:43:28;;;;;;;3.53;3.33;;;20.10;44.80;;;;;;5002152;28;20718;-72
2023/05/21 03:45:54;;;;;;;3.47;3.27;;;20.10;44.80;;;;;;5010855;28;20233;-72
2023/05/21 03:48:20;;;;;;;3.40;3.20;;;20.10;44.80;;;;;;4984799;28;20231;-72
2023/05/21 03:50:45;;;;;;;3.50;3.30;;;20.10;44.80;;;;;;4990313;28;20216;-72
2023/05/21 03:53:11;;;;;;;3.43;3.23;;;20.10;44.80;;;;;;5010936;28;20316;-72
2023/05/21 03:55:37;;;;;;;3.70;3.50;;;20.20;45.40;;;;;;5003030;28;20260;-72
2023/05/21 03:58:02;;;;;;;3.37;3.17;;;20.10;44.80;;;;;;5014825;28;21185;-72
2023/05/21 04:00:28;;;;;;;2.93;2.73;;;20.10;44.80;;;;;;5007936;28;20230;-72
2023/05/21 04:02:53;;;;;;;3.03;2.83;;;20.10;44.80;;;;;;5003033;28;20223;-72
2023/05/21 04:05:19;;;;;;;3.23;3.03;;;20.10;44.80;;;;;;5008724;28;20228;-72
2023/05/21 04:07:45;;;;;;;3.37;3.17;;;20.10;44.90;;;;;;4993984;28;20231;-71
2023/05/21 04:10:11;;;;;;;3.50;3.30;;;20.10;44.80;;;;;;5013664;28;20254;-73
2023/05/21 04:12:37;;;;;;;3.50;3.27;;;20.10;44.80;;;;;;5014541;28;20235;-77
2023/05/21 04:15:03;;;;;;;3.60;3.40;;;20.10;44.80;;;;;;4994061;28;20466;-74
2023/05/21 04:17:28;;;;;;;3.37;3.17;;;20.10;44.80;;;;;;5014593;28;20752;-73
2023/05/21 04:19:54;;;;;;;3.40;3.20;;;20.10;44.80;;;;;;5013467;28;20221;-72
2023/05/21 04:22:20;;;;;;;2.70;2.60;;;20.10;44.80;;;;;;5014956;28;20239;-72
2023/05/21 04:24:47;;;;;;;3.30;3.10;;;20.10;44.80;;;;;;5008650;28;20219;-72
2023/05/21 04:27:15;;;;;;;3.43;3.23;;;20.10;44.80;;;;;;5011685;28;20430;-73
2023/05/21 04:29:41;;;;;;;3.60;3.40;;;20.10;45.00;;;;;;5005567;28;20473;-73
2023/05/21 04:32:07;;;;;;;7.40;3.20;;;20.10;44.80;;;;;;5002110;28;20444;-72
2023/05/21 04:34:33;;;;;;;3.07;2.87;;;20.20;44.90;;;;;;4993599;28;20483;-73
2023/05/21 04:37:00;;;;;;;4.27;3.93;;;20.10;44.90;;;;;;5011044;28;20447;-73
2023/05/21 04:39:27;;;;;;;3.20;3.00;;;20.10;44.90;;;;;;5002463;28;20231;-73
2023/05/21 04:41:55;;;;;;;3.47;3.27;;;20.10;44.80;;;;;;5007438;28;20456;-72
2023/05/21 04:44:20;;;;;;;3.20;3.00;;;20.20;45.00;;;;;;5001302;28;20518;-72
2023/05/21 04:46:47;;;;;;;3.17;2.97;;;20.10;44.90;;;;;;5014286;28;20463;-72
2023/05/21 04:49:14;;;;;;;3.33;3.10;;;20.20;45.00;;;;;;4994026;28;20677;-73
2023/05/21 04:51:40;;;;;;;3.43;3.13;;;20.20;44.90;;;;;;5011922;28;20933;-74
2023/05/21 04:54:06;;;;;;;3.00;2.80;;;20.20;44.90;;;;;;5003163;28;20483;-72
2023/05/21 04:56:31;;;;;;;3.27;3.03;;;20.10;44.80;;;;;;4998167;28;20476;-72
2023/05/21 04:58:57;;;;;;;3.80;3.60;;;20.20;44.90;;;;;;4993645;28;20532;-72
2023/05/21 05:01:24;;;;;;;3.20;3.00;;;20.20;44.90;;;;;;5010688;28;20241;-71
2023/05/21 05:03:50;;;;;;;2.87;2.77;;;20.20;44.90;;;;;;5006438;28;20224;-72
2023/05/21 05:06:16;;;;;;;3.07;2.87;;;20.20;44.90;;;;;;5008345;28;20559;-71
2023/05/21 05:08:42;;;;;;;3.50;3.30;;;20.20;44.90;;;;;;5002587;28;20235;-71
2023/05/21 05:11:07;;;;;;;3.60;3.40;;;20.20;44.90;;;;;;4999097;28;20610;-72
2023/05/21 05:13:33;;;;;;;3.30;3.03;;;20.20;44.90;;;;;;5000856;28;20247;-73
2023/05/21 05:16:00;;;;;;;3.27;3.07;;;20.20;44.90;;;;;;5009777;28;20722;-71
2023/05/21 05:18:26;;;;;;;2.90;2.80;;;20.20;44.90;;;;;;4995497;28;20219;-71
2023/05/21 05:20:51;;;;;;;3.00;2.90;;;20.20;44.90;;;;;;4996946;28;20551;-72
2023/05/21 05:23:17;;;;;;;3.37;3.17;;;20.20;44.90;;;;;;4998987;28;20227;-71
2023/05/21 05:25:42;;;;;;;2.77;2.57;;;20.20;44.90;;;;;;5011686;28;20223;-76
2023/05/21 05:28:08;;;;;;;3.33;3.13;;;20.20;44.90;;;;;;4989929;28;20243;-74
2023/05/21 05:30:34;;;;;;;2.90;2.80;;;20.20;44.90;;;;;;5002074;28;20298;-72
2023/05/21 05:33:00;;;;;;;3.47;3.10;;;20.20;44.90;;;;;;4988962;28;20270;-73
2023/05/21 05:35:25;;;;;;;3.17;2.97;;;20.20;44.90;;;;;;4996497;28;20464;-70
2023/05/21 05:37:51;;;;;;;3.10;2.90;;;20.20;44.90;;;;;;5002978;28;20351;-70
2023/05/21 05:40:17;;;;;;;2.80;2.63;;;20.20;44.90;;;;;;5004846;28;20231;-70
2023/05/21 05:42:42;;;;;;;3.17;2.97;;;20.20;44.90;;;;;;5002988;28;20238;-71
2023/05/21 05:45:08;;;;;;;3.00;2.90;;;20.20;44.90;;;;;;4998732;28;20299;-71
2023/05/21 05:47:34;;;;;;;2.90;2.70;;;20.20;44.90;;;;;;5008579;28;20227;-71
2023/05/21 05:50:00;;;;;;;3.40;3.20;;;20.20;44.90;;;;;;5003079;28;20468;-70
2023/05/21 05:52:25;;;;;;;3.47;3.03;;;20.20;44.90;;;;;;5002566;28;20601;-70
2023/05/21 05:54:51;;;;;;;3.30;2.80;;;20.20;44.90;;;;;;5003025;28;20268;-69
2023/05/21 05:57:16;;;;;;;3.30;3.10;;;20.20;44.90;;;;;;5001452;28;20229;-72
2023/05/21 05:59:42;;;;;;;2.77;2.67;;;20.20;44.90;;;;;;5011631;28;20226;-72
2023/05/21 06:02:07;;;;;;;2.93;2.67;;;20.30;45.00;;;;;;5003109;28;20230;-69
2023/05/21 06:04:33;;;;;;;2.73;2.63;;;20.30;45.00;;;;;;4995633;28;20223;-69
2023/05/21 06:06:59;;;;;;;3.07;2.87;;;20.30;45.00;;;;;;4996073;28;20230;-70
2023/05/21 06:09:24;;;;;;;5.67;3.43;;;20.30;45.00;;;;;;4992700;28;20588;-70
2023/05/21 06:11:50;;;;;;;3.17;2.97;;;20.30;45.00;;;;;;4985522;28;20484;-71
2023/05/21 06:14:16;;;;;;;3.10;2.90;;;20.30;45.00;;;;;;4996795;28;20509;-70
2023/05/21 06:16:41;;;;;;;3.07;2.87;;;20.30;45.00;;;;;;4999156;28;20274;-71
2023/05/21 06:19:07;;;;;;;3.40;2.93;;;20.30;45.00;;;;;;4990696;28;20599;-71
2023/05/21 06:21:33;;;;;;;3.13;2.93;;;20.20;44.90;;;;;;5001570;28;20261;-70
2023/05/21 06:23:58;;;;;;;2.90;2.70;;;20.30;45.10;;;;;;4996333;28;20223;-71
2023/05/21 06:26:24;;;;;;;2.70;2.57;;;20.20;44.90;;;;;;4995287;28;20237;-70
2023/05/21 06:28:49;;;;;;;3.20;3.00;;;20.30;45.00;;;;;;5010222;28;20221;-70
2023/05/21 06:31:15;;;;;;;3.37;3.17;;;20.30;45.00;;;;;;4995017;28;20223;-71
2023/05/21 06:33:41;;;;;;;3.30;3.10;;;20.30;45.00;;;;;;5004361;28;20678;-71
2023/05/21 06:36:06;;;;;;;3.10;2.80;;;20.30;45.00;;;;;;5008484;28;20235;-71
2023/05/21 06:38:32;;;;;;;3.30;3.00;;;20.30;45.00;;;;;;5009407;28;20223;-70
2023/05/21 06:40:58;;;;;;;2.90;2.77;;;20.30;45.00;;;;;;5001914;28;20262;-71
2023/05/21 06:43:23;;;;;;;2.60;2.50;;;20.30;45.00;;;;;;4997658;28;21134;-70
2023/05/21 06:45:49;;;;;;;3.37;3.17;;;20.30;45.00;;;;;;5005281;28;20227;-71
2023/05/21 06:48:15;;;;;;;3.10;2.90;;;20.30;45.00;;;;;;4998245;28;20229;-69
2023/05/21 06:50:42;;;;;;;2.80;2.70;;;20.30;45.00;;;;;;5004430;28;20585;-71
2023/05/21 06:53:08;;;;;;;2.87;2.77;;;20.30;45.00;;;;;;5000949;28;20935;-70
2023/05/21 06:55:34;;;;;;;3.23;3.03;;;20.30;45.00;;;;;;4993957;28;20484;-70
2023/05/21 06:58:00;;;;;;;3.00;2.90;;;20.30;45.00;;;;;;4997769;28;20563;-71
2023/05/21 07:00:26;;;;;;;2.83;2.73;;;20.30;45.00;;;;;;5006496;28;20476;-70
2023/05/21 07:02:51;;;;;;;2.97;2.87;;;20.20;44.90;;;;;;5008839;28;20302;-71
2023/05/21 07:05:17;;;;;;;3.20;3.03;;;20.30;45.00;;;;;;5008218;28;20223;-71
2023/05/21 07:07:42;;;;;;;2.57;2.37;;;20.30;45.00;;;;;;5009665;28;20223;-70
2023/05/21 07:10:08;;;;;;;3.20;3.00;;;20.30;45.00;;;;;;5011799;28;20218;-70
2023/05/21 07:12:34;;;;;;;3.23;3.03;;;20.30;45.00;;;;;;4988723;28;20282;-70
2023/05/21 07:14:59;;;;;;;2.93;2.73;;;20.30;45.00;;;;;;5013822;28;21179;-70
2023/05/21 07:17:25;;;;;;;3.20;3.03;;;20.30;45.00;;;;;;5005065;28;20756;-71
2023/05/21 07:19:50;;;;;;;3.00;2.70;;;20.30;45.00;;;;;;5005475;28;20218;-70
2023/05/21 07:22:16;;;;;;;2.77;2.67;;;20.30;45.00;;;;;;5001455;28;22098;-70
2023/05/21 07:24:42;;;;;;;2.80;2.60;;;20.30;45.00;;;;;;5011120;28;20223;-70
2023/05/21 07:27:07;;;;;;;2.83;2.73;;;20.30;45.00;;;;;;4997874;28;20294;-70
2023/05/21 07:29:33;;;;;;;2.90;2.70;;;20.30;45.00;;;;;;5006116;28;20231;-70
2023/05/21 07:31:58;;;;;;;2.77;2.60;;;20.30;45.10;;;;;;5003053;28;20225;-71
2023/05/21 07:34:25;;;;;;;2.70;2.60;;;20.30;45.00;;;;;;5009422;28;20257;-71
2023/05/21 07:36:50;;;;;;;3.00;2.80;;;20.30;45.00;;;;;;4999231;28;20227;-70
2023/05/21 07:39:16;;;;;;;3.17;3.00;;;20.30;45.00;;;;;;5001143;28;20982;-69
2023/05/21 07:41:41;;;;;;;3.07;2.97;;;20.30;45.00;;;;;;5009821;28;20235;-70
2023/05/21 07:44:07;;;;;;;2.90;2.77;;;20.30;45.00;;;;;;5000908;28;20253;-71
2023/05/21 07:46:32;;;;;;;2.80;2.60;;;20.30;45.00;;;;;;5014613;28;20715;-70
2023/05/21 07:48:58;;;;;;;3.00;2.80;;;20.30;45.10;;;;;;5011039;28;20257;-70
2023/05/21 07:51:25;;;;;;;2.60;2.50;;;20.30;45.00;;;;;;5007685;28;20219;-70
2023/05/21 07:53:50;;;;;;;3.07;2.80;;;20.30;45.10;;;;;;5001029;28;20309;-71
2023/05/21 07:56:16;;;;;;;3.20;3.00;;;20.30;45.20;;;;;;5000493;28;20472;-70
2023/05/21 07:58:44;;;;;;;3.00;2.80;;;20.30;45.10;;;;;;5010052;28;20277;-71
2023/05/21 08:01:10;;;;;;;3.00;2.90;;;20.30;45.00;;;;;;5003467;28;20243;-70
2023/05/21 08:03:36;;;;;;;2.30;2.20;;;20.30;45.00;;;;;;5004352;28;20456;-71
2023/05/21 08:06:01;;;;;;;3.03;2.83;;;20.30;45.10;;;;;;5001901;28;20440;-70
2023/05/21 08:08:27;;;;;;;2.83;2.73;;;20.30;45.10;;;;;;5007190;28;20222;-70
2023/05/21 08:10:52;;;;;;;3.17;2.97;;;20.30;45.00;;;;;;5012968;28;20231;-70
2023/05/21 08:13:18;;;;;;;3.50;3.30;;;20.30;45.00;;;;;;5009447;28;20317;-70
2023/05/21 08:15:44;;;;;;;2.67;2.57;;;20.30;45.00;;;;;;5013552;28;21198;-70
2023/05/21 08:18:10;;;;;;;3.77;3.57;;;20.30;45.10;;;;;;5007079;28;20223;-70
2023/05/21 08:20:36;;;;;;;2.90;2.70;;;20.30;45.10;;;;;;5011021;28;20292;-70
2023/05/21 08:23:02;;;;;;;3.27;3.07;;;20.30;45.10;;;;;;4996873;28;20469;-70
2023/05/21 08:25:28;;;;;;;2.77;2.63;;;20.30;45.10;;;;;;5003679;28;20643;-70
2023/05/21 08:27:54;;;;;;;2.47;2.37;;;20.30;45.10;;;;;;5011225;28;20437;-70
2023/05/21 08:30:19;;;;;;;3.13;2.93;;;20.30;45.00;;;;;;5005740;28;20219;-70
2023/05/21 08:32:46;;;;;;;2.53;2.43;;;20.30;45.10;;;;;;5006794;28;20261;-69
2023/05/21 08:35:12;;;;;;;2.80;2.60;;;20.30;45.10;;;;;;5008989;28;20214;-70
2023/05/21 08:37:37;;;;;;;3.13;2.93;;;20.30;45.20;;;;;;5014418;28;21020;-70
2023/05/21 08:40:04;;;;;;;2.70;2.50;;;20.30;45.10;;;;;;5011900;28;20303;-70
2023/05/21 08:42:43;;;;;;;2.70;2.60;;;20.30;45.10;;;;;;5007852;28;20239;-70
2023/05/21 08:45:12;;;;;;;2.63;2.50;;;20.30;45.20;;;;;;4996056;28;20442;-71
2023/05/21 08:47:42;;;;;;;3.00;2.90;;;20.30;45.10;;;;;;5001120;28;20439;-70
2023/05/21 08:50:15;;;;;;;2.80;2.70;;;20.30;45.10;;;;;;5007896;28;20995;-70
2023/05/21 08:52:40;;;;;;;2.43;2.33;;;20.30;45.20;;;;;;5011576;28;20470;-70
2023/05/21 08:55:07;;;;;;;3.00;2.90;;;20.30;45.10;;;;;;5012120;28;20880;-69
2023/05/21 08:57:33;;;;;;;3.40;3.20;;;20.30;45.10;;;;;;5008516;28;20348;-70
2023/05/21 09:00:00;;;;;;;3.43;3.23;;;20.30;45.20;;;;;;5006628;28;20442;-70
2023/05/21 09:02:26;;;;;;;3.17;2.97;;;20.30;45.10;;;;;;5005673;28;21011;-70
2023/05/21 09:04:56;;;;;;;3.10;2.90;;;20.30;45.20;;;;;;5000318;28;20467;-70
2023/05/21 09:07:24;;;;;;;2.37;2.27;;;20.30;45.20;;;;;;5011396;28;20460;-70
2023/05/21 09:10:04;;;;;;;3.37;3.17;;;20.30;45.20;;;;;;5011369;28;20471;-71
2023/05/21 09:12:31;;;;;;;2.40;2.30;;;20.30;45.20;;;;;;5002345;28;21286;-70
2023/05/21 09:14:57;;;;;;;3.00;2.90;;;20.30;45.20;;;;;;5009811;28;20476;-71
2023/05/21 09:17:23;;;;;;;2.90;2.70;;;20.30;45.20;;;;;;5003917;28;20844;-70
2023/05/21 09:20:13;;;;;;;3.17;2.97;;;20.30;45.20;;;;;;5006428;28;20468;-70
2023/05/21 09:22:40;;;;;;;2.90;2.80;;;20.30;45.20;;;;;;4993457;28;20510;-71
2023/05/21 09:25:09;;;;;;;2.50;2.40;;;20.30;45.20;;;;;;5002031;28;20535;-70
2023/05/21 09:27:35;;;;;;;3.10;2.90;;;20.30;45.20;;;;;;5008608;28;20464;-71
2023/05/21 09:30:05;;;;;;;3.07;2.83;;;20.30;45.30;;;;;;4996525;28;20973;-71
2023/05/21 09:32:30;;;;;;;2.57;2.47;;;20.40;45.30;;;;;;5007709;28;20262;-71
2023/05/21 09:34:56;;;;;;;3.10;2.90;;;20.30;45.30;;;;;;5011095;28;20852;-71
2023/05/21 09:37:21;;;;;;;3.13;2.93;;;20.30;45.30;;;;;;5009715;28;20363;-70
2023/05/21 09:39:47;;;;;;;3.33;3.13;;;20.30;45.20;;;;;;5013972;28;20284;-70
2023/05/21 09:42:13;;;;;;;2.80;2.70;;;20.30;45.30;;;;;;5012889;28;20241;-70
2023/05/21 09:44:42;;;;;;;3.40;3.20;;;20.30;45.30;;;;;;5010338;28;20225;-70
2023/05/21 09:47:11;;;;;;;3.10;2.90;;;20.30;45.30;;;;;;4993868;28;22098;-70
2023/05/21 09:49:36;;;;;;;3.20;3.00;;;20.30;45.30;;;;;;5010846;28;20459;-70
2023/05/21 09:52:03;;;;;;;2.50;2.40;;;20.40;45.30;;;;;;5010471;28;20437;-70
2023/05/21 09:54:34;;;;;;;3.30;3.10;;;20.30;45.40;;;;;;5022425;28;21301;-70
2023/05/21 09:57:03;;;;;;;3.00;2.90;;;20.40;45.40;;;;;;5024570;28;20460;-71
2023/05/21 09:59:38;;;;;;;3.10;3.00;;;20.30;45.30;;;;;;5024340;27;20936;-71
2023/05/21 10:02:21;;;;;;;3.10;2.90;;;20.40;45.40;;;;;;5012228;28;20467;-71
2023/05/21 10:04:48;;;;;;;3.23;3.03;;;20.40;45.50;;;;;;5014478;28;20978;-71
2023/05/21 10:07:24;;;;;;;3.57;3.37;;;20.30;45.50;;;;;;5025111;28;21075;-70
2023/05/21 10:09:56;;;;;;;3.33;3.13;;;20.40;45.40;;;;;;5009272;28;20466;-71
2023/05/21 10:12:23;;;;;;;3.30;3.10;;;20.30;45.40;;;;;;5026414;28;20498;-70
2023/05/21 10:15:00;;;;;;;3.10;3.00;;;20.40;45.40;;;;;;5006016;28;20479;-71
2023/05/21 10:17:27;;;;;;;3.10;3.00;;;20.40;45.50;;;;;;5012930;28;20491;-71
2023/05/21 10:19:55;;;;;;;2.97;2.77;;;20.40;45.50;;;;;;5013602;28;20483;-71
2023/05/21 10:22:23;;;;;;;3.00;2.80;;;20.40;45.50;;;;;;5022238;28;20451;-71
2023/05/21 10:24:50;;;;;;;3.13;2.97;;;20.40;45.40;;;;;;5021953;28;20462;-71
2023/05/21 10:27:17;;;;;;;3.17;3.07;;;20.40;46.10;;;;;;5003501;28;20431;-71
2023/05/21 10:29:44;;;;;;;3.40;3.20;;;20.40;45.50;;;;;;5024109;28;20488;-70
2023/05/21 10:32:11;;;;;;;3.77;3.57;;;20.40;45.50;;;;;;5018541;28;20414;-71
2023/05/21 10:34:37;;;;;;;3.53;3.33;;;20.40;45.50;;;;;;5006751;28;20471;-71
2023/05/21 10:37:05;;;;;;;3.53;3.33;;;20.40;45.40;;;;;;5031258;28;20430;-71
2023/05/21 10:39:32;;;;;;;3.23;3.03;;;20.40;45.60;;;;;;5026341;28;20293;-71
2023/05/21 10:42:16;;;;;;;3.40;3.20;;;20.40;45.50;;;;;;5008692;28;20461;-71
2023/05/21 10:45:02;;;;;;;3.63;3.43;;;20.40;45.50;;;;;;5017411;28;20456;-71
2023/05/21 10:47:48;;;;;;;3.43;3.23;;;20.40;45.50;;;;;;5024190;28;20429;-71
2023/05/21 10:50:22;;;;;;;3.63;3.43;;;20.40;45.50;;;;;;5014966;28;20889;-72
2023/05/21 10:53:06;;;;;;;3.57;3.37;;;20.40;45.50;;;;;;5018445;28;20470;-71
2023/05/21 10:55:57;;;;;;;3.83;3.63;;;20.40;45.50;;;;;;5012686;28;20492;-71
2023/05/21 10:58:41;;;;;;;3.60;3.40;;;20.40;45.60;;;;;;5020722;28;21460;-71
2023/05/21 11:01:07;;;;;;;3.50;3.30;;;20.40;45.60;;;;;;5015431;28;20451;-69
2023/05/21 11:03:33;;;;;;;3.33;3.03;;;20.40;45.60;;;;;;5008623;28;20500;-70
2023/05/21 11:06:02;;;;;;;3.73;3.53;;;20.40;45.60;;;;;;5007192;28;20309;-69
2023/05/21 11:08:34;;;;;;;4.20;4.00;;;20.40;45.60;;;;;;5002701;28;20883;-70
2023/05/21 11:11:01;;;;;;;3.87;3.67;;;20.40;45.60;;;;;;5002459;28;20467;-69
2023/05/21 11:13:30;;;;;;;3.97;3.77;;;20.30;45.50;;;;;;5001702;28;20473;-69
2023/05/21 11:15:58;;;;;;;3.93;3.73;;;20.40;45.60;;;;;;5001735;28;20436;-69
2023/05/21 11:18:32;;;;;;;3.53;3.33;;;20.40;45.60;;;;;;5001211;28;20453;-69
2023/05/21 11:21:05;;;;;;;3.37;3.20;;;20.40;45.60;;;;;;5003513;28;20551;-69
2023/05/21 11:23:51;;;;;;;3.80;3.60;;;20.40;45.60;;;;;;4992944;28;20462;-69
2023/05/21 11:26:17;;;;;;;3.70;3.50;;;20.40;45.60;;;;;;5004141;28;20539;-69
2023/05/21 11:28:43;;;;;;;3.87;3.67;;;20.40;45.60;;;;;;5007351;28;20503;-69
2023/05/21 11:31:25;;;;;;;3.80;3.60;;;20.40;45.60;;;;;;5000352;28;20577;-68
2023/05/21 11:34:09;;;;;;;3.67;3.37;;;20.40;45.60;;;;;;5014262;28;20316;-72
2023/05/21 11:36:45;;;;;;;3.93;3.70;;;20.40;45.70;;;;;;5001668;28;20957;-69
2023/05/21 11:39:25;;;;;;;4.00;3.80;;;20.40;45.70;;;;;;5013844;28;20480;-69
2023/05/21 11:41:58;;;;;;;4.23;4.00;;;20.40;45.60;;;;;;4997343;28;20501;-69
2023/05/21 11:44:42;;;;;;;6.27;4.60;;;20.40;45.70;;;;;;5006853;28;20519;-69
2023/05/21 11:47:13;;;;;;;3.90;3.70;;;20.40;45.60;;;;;;5007589;28;20983;-69
2023/05/21 11:49:39;;;;;;;5.23;3.87;;;20.40;45.70;;;;;;5001661;28;22457;-69
2023/05/21 11:52:07;;;;;;;4.37;4.07;;;20.40;45.70;;;;;;4998495;28;20415;-69
2023/05/21 11:54:42;;;;;;;3.80;3.60;;;20.40;45.70;;;;;;5041416;28;20469;-69
2023/05/21 11:57:08;;;;;;;4.27;4.07;;;20.40;45.70;;;;;;5010540;28;20451;-69
2023/05/21 11:59:35;;;;;;;4.30;4.10;;;20.40;45.60;;;;;;5009534;28;20451;-69
2023/05/21 12:02:01;;;;;;;4.57;4.37;;;20.40;45.70;;;;;;5015676;28;20468;-69
2023/05/21 12:04:31;;;;;;;4.57;4.30;;;20.40;45.70;;;;;;4998846;28;20461;-70
2023/05/21 12:06:57;;;;;;;4.27;4.07;;;20.40;45.70;;;;;;4995704;28;20502;-69
2023/05/21 12:09:23;;;;;;;4.43;4.13;;;20.40;45.70;;;;;;5012807;28;20587;-67
2023/05/21 12:11:50;;;;;;;4.60;4.30;;;20.40;46.50;;;;;;5004940;28;20230;-68
2023/05/21 12:14:16;;;;;;;4.50;4.30;;;20.40;45.70;;;;;;5007373;28;20434;-67
2023/05/21 12:16:41;;;;;;;4.03;3.83;;;20.40;45.70;;;;;;5014085;28;20441;-68
2023/05/21 12:19:07;;;;;;;4.20;4.00;;;20.40;45.70;;;;;;5009845;28;20227;-69
2023/05/21 12:21:34;;;;;;;5.17;4.77;;;20.40;45.70;;;;;;4997295;28;20224;-68
2023/05/21 12:23:59;;;;;;;4.30;4.10;;;20.40;45.70;;;;;;5006212;28;20712;-68
2023/05/21 12:26:25;;;;;;;4.53;4.23;;;20.40;45.70;;;;;;5008292;28;20638;-68
2023/05/21 12:28:55;;;;;;;4.67;4.37;;;20.40;45.70;;;;;;4996415;28;20262;-68
2023/05/21 12:31:22;;;;;;;4.40;4.20;;;20.40;45.70;;;;;;4995898;28;20559;-68
2023/05/21 12:33:51;;;;;;;4.70;4.40;;;20.40;45.70;;;;;;4995152;28;20473;-68
2023/05/21 12:36:28;;;;;;;4.37;4.17;;;20.40;45.70;;;;;;4994435;28;21046;-68
2023/05/21 12:38:55;;;;;;;4.57;4.33;;;20.40;45.70;;;;;;4996635;28;20892;-68
2023/05/21 12:41:20;;;;;;;4.30;4.10;;;20.40;45.70;;;;;;5002338;28;20991;-72
2023/05/21 12:43:46;;;;;;;5.13;4.90;;;20.40;45.70;;;;;;5001966;28;20447;-68
2023/05/21 12:46:16;;;;;;;4.57;4.30;;;20.40;45.70;;;;;;5000277;28;20631;-67
2023/05/21 12:49:02;;;;;;;4.50;4.20;;;20.40;45.70;;;;;;4999625;28;20218;-67